createdAt,value
2018-07-02T00:00:34.224Z,21.78
2018-07-02T00:01:34.193Z,21.77
2018-07-02T00:02:33.962Z,21.8
2018-07-02T00:03:34.028Z,21.77
2018-07-02T00:04:34.059Z,21.76
2018-07-02T00:05:34.155Z,21.8
2018-07-02T00:06:34.245Z,21.78
2018-07-02T00:07:37.614Z,21.78
2018-07-02T00:08:33.973Z,21.78
2018-07-02T00:09:34.103Z,21.77
2018-07-02T00:10:34.293Z,21.78
2018-07-02T00:11:37.295Z,21.77
2018-07-02T00:12:34.065Z,21.78
2018-07-02T00:13:34.088Z,21.78
2018-07-02T00:14:34.205Z,21.77
2018-07-02T00:15:35.975Z,21.77
2018-07-02T00:16:34.175Z,21.77
2018-07-02T00:17:34.147Z,21.76
2018-07-02T00:18:34.164Z,21.77
2018-07-02T00:19:34.208Z,21.77
2018-07-02T00:20:34.255Z,21.77
2018-07-02T00:21:34.199Z,21.76
2018-07-02T00:22:34.113Z,21.8
2018-07-02T00:23:34.166Z,21.77
2018-07-02T00:24:34.116Z,21.76
2018-07-02T00:25:34.347Z,21.76
2018-07-02T00:26:34.097Z,21.74
2018-07-02T00:27:34.199Z,21.77
2018-07-02T00:28:33.883Z,21.78
2018-07-02T00:29:34.216Z,21.77
2018-07-02T00:30:34.054Z,21.77
2018-07-02T00:31:34.129Z,21.76
2018-07-02T00:32:33.951Z,21.77
2018-07-02T00:33:34.109Z,21.78
2018-07-02T00:34:33.923Z,21.74
2018-07-02T00:35:34.104Z,21.76
2018-07-02T00:36:37.130Z,21.76
2018-07-02T00:37:33.933Z,21.77
2018-07-02T00:38:34.126Z,21.74
2018-07-02T00:39:33.974Z,21.76
2018-07-02T00:40:34.458Z,21.78
2018-07-02T00:41:37.520Z,21.77
2018-07-02T00:42:34.590Z,21.74
2018-07-02T00:43:34.235Z,21.76
2018-07-02T00:44:34.090Z,21.73
2018-07-02T00:45:34.167Z,21.74
2018-07-02T00:46:33.914Z,21.74
2018-07-02T00:47:33.916Z,21.76
2018-07-02T00:48:34.131Z,21.73
2018-07-02T00:49:34.013Z,21.73
2018-07-02T00:50:36.269Z,21.74
2018-07-02T00:51:33.984Z,21.74
2018-07-02T00:52:34.123Z,21.76
2018-07-02T00:53:34.100Z,21.74
2018-07-02T00:54:33.931Z,21.76
2018-07-02T00:55:34.027Z,21.73
2018-07-02T00:56:34.342Z,21.71
2018-07-02T00:57:37.786Z,21.71
2018-07-02T00:58:34.841Z,21.74
2018-07-02T00:59:34.607Z,21.73
2018-07-02T01:00:34.305Z,21.74
2018-07-02T01:01:34.014Z,21.73
2018-07-02T01:02:33.986Z,21.73
2018-07-02T01:03:34.078Z,21.74
2018-07-02T01:04:37.159Z,21.74
2018-07-02T01:05:34.196Z,21.71
2018-07-02T01:06:34.477Z,21.73
2018-07-02T01:07:34.587Z,21.71
2018-07-02T01:08:34.000Z,21.73
2018-07-02T01:09:34.241Z,21.71
2018-07-02T01:10:34.297Z,21.73
2018-07-02T01:11:37.183Z,21.73
2018-07-02T01:12:34.122Z,21.73
2018-07-02T01:13:33.889Z,21.71
2018-07-02T01:14:38.148Z,21.73
2018-07-02T01:15:34.310Z,21.71
2018-07-02T01:16:34.309Z,21.7
2018-07-02T01:17:36.518Z,21.71
2018-07-02T01:18:34.005Z,21.71
2018-07-02T01:19:34.089Z,21.71
2018-07-02T01:20:37.468Z,21.71
2018-07-02T01:21:34.226Z,21.7
2018-07-02T01:22:33.963Z,21.73
2018-07-02T01:23:36.110Z,21.71
2018-07-02T01:24:34.289Z,21.68
2018-07-02T01:25:34.409Z,21.71
2018-07-02T01:26:33.978Z,21.71
2018-07-02T01:27:34.271Z,21.71
2018-07-02T01:28:34.300Z,21.7
2018-07-02T01:29:34.032Z,21.68
2018-07-02T01:30:34.133Z,21.71
2018-07-02T01:31:33.960Z,21.7
2018-07-02T01:32:37.855Z,21.7
2018-07-02T01:33:34.081Z,21.7
2018-07-02T01:34:33.986Z,21.73
2018-07-02T01:35:34.107Z,21.71
2018-07-02T01:36:37.202Z,21.71
2018-07-02T01:37:33.927Z,21.7
2018-07-02T01:38:34.177Z,21.73
2018-07-02T01:39:39.248Z,21.71
2018-07-02T01:40:43.927Z,21.7
2018-07-02T01:41:33.998Z,21.7
2018-07-02T01:42:36.796Z,21.71
2018-07-02T01:43:34.055Z,21.68
2018-07-02T01:44:33.992Z,21.71
2018-07-02T01:45:34.989Z,21.71
2018-07-02T01:46:34.133Z,21.71
2018-07-02T01:47:33.975Z,21.71
2018-07-02T01:48:34.118Z,21.68
2018-07-02T01:49:34.080Z,21.67
2018-07-02T01:50:33.970Z,21.68
2018-07-02T01:51:34.102Z,21.7
2018-07-02T01:52:33.932Z,21.68
2018-07-02T01:53:34.033Z,21.68
2018-07-02T01:54:33.899Z,21.67
2018-07-02T01:55:37.239Z,21.66
2018-07-02T01:56:34.174Z,21.7
2018-07-02T01:57:33.909Z,21.68
2018-07-02T01:58:33.976Z,21.67
2018-07-02T01:59:37.096Z,21.67
2018-07-02T02:00:34.073Z,21.68
2018-07-02T02:01:34.281Z,21.66
2018-07-02T02:02:34.219Z,21.67
2018-07-02T02:03:37.034Z,21.67
2018-07-02T02:04:34.241Z,21.67
2018-07-02T02:05:33.853Z,21.67
2018-07-02T02:06:34.001Z,21.68
2018-07-02T02:07:36.346Z,21.67
2018-07-02T02:08:33.958Z,21.67
2018-07-02T02:09:34.053Z,21.67
2018-07-02T02:10:33.938Z,21.68
2018-07-02T02:11:36.699Z,21.66
2018-07-02T02:12:34.026Z,21.67
2018-07-02T02:13:33.946Z,21.68
2018-07-02T02:14:43.954Z,21.66
2018-07-02T02:15:37.507Z,21.67
2018-07-02T02:16:33.986Z,21.68
2018-07-02T02:17:34.146Z,21.67
2018-07-02T02:18:34.154Z,21.66
2018-07-02T02:19:37.166Z,21.66
2018-07-02T02:20:34.038Z,21.66
2018-07-02T02:21:33.933Z,21.67
2018-07-02T02:22:33.938Z,21.66
2018-07-02T02:23:34.474Z,21.66
2018-07-02T02:24:34.040Z,21.64
2018-07-02T02:25:33.988Z,21.66
2018-07-02T02:26:34.031Z,21.67
2018-07-02T02:27:34.059Z,21.67
2018-07-02T02:28:36.811Z,21.66
2018-07-02T02:29:33.871Z,21.66
2018-07-02T02:30:34.021Z,21.64
2018-07-02T02:31:34.057Z,21.67
2018-07-02T02:32:37.642Z,21.66
2018-07-02T02:33:33.993Z,21.66
2018-07-02T02:34:33.942Z,21.64
2018-07-02T02:35:34.014Z,21.64
2018-07-02T02:36:36.558Z,21.66
2018-07-02T02:37:33.854Z,21.63
2018-07-02T02:38:34.047Z,21.66
2018-07-02T02:39:34.037Z,21.64
2018-07-02T02:40:37.291Z,21.64
2018-07-02T02:41:34.039Z,21.66
2018-07-02T02:42:34.039Z,21.64
2018-07-02T02:43:34.173Z,21.66
2018-07-02T02:44:36.568Z,21.63
2018-07-02T02:45:33.934Z,21.64
2018-07-02T02:46:33.921Z,21.64
2018-07-02T02:47:33.960Z,21.64
2018-07-02T02:48:37.602Z,21.63
2018-07-02T02:49:33.889Z,21.61
2018-07-02T02:50:34.016Z,21.61
2018-07-02T02:51:34.025Z,21.66
2018-07-02T02:52:37.243Z,21.63
2018-07-02T02:53:33.981Z,21.63
2018-07-02T02:54:33.868Z,21.63
2018-07-02T02:55:33.864Z,21.63
2018-07-02T02:56:37.264Z,21.66
2018-07-02T02:57:34.124Z,21.64
2018-07-02T02:58:34.007Z,21.64
2018-07-02T02:59:33.883Z,21.64
2018-07-02T03:00:34.316Z,21.64
2018-07-02T03:01:34.092Z,21.64
2018-07-02T03:02:34.092Z,21.64
2018-07-02T03:03:34.081Z,21.61
2018-07-02T03:04:33.889Z,21.63
2018-07-02T03:05:36.999Z,21.61
2018-07-02T03:06:33.921Z,21.61
2018-07-02T03:07:33.894Z,21.63
2018-07-02T03:08:33.989Z,21.61
2018-07-02T03:09:38.037Z,21.6
2018-07-02T03:10:33.931Z,21.63
2018-07-02T03:11:33.951Z,21.63
2018-07-02T03:12:34.082Z,21.6
2018-07-02T03:13:33.972Z,21.61
2018-07-02T03:14:34.092Z,21.63
2018-07-02T03:15:34.056Z,21.63
2018-07-02T03:16:34.000Z,21.63
2018-07-02T03:17:34.063Z,21.61
2018-07-02T03:18:34.121Z,21.6
2018-07-02T03:19:33.907Z,21.63
2018-07-02T03:20:34.144Z,21.63
2018-07-02T03:21:34.063Z,21.63
2018-07-02T03:22:37.522Z,21.64
2018-07-02T03:23:33.930Z,21.6
2018-07-02T03:24:34.085Z,21.61
2018-07-02T03:25:34.289Z,21.61
2018-07-02T03:26:36.911Z,21.6
2018-07-02T03:27:34.066Z,21.6
2018-07-02T03:28:33.962Z,21.59
2018-07-02T03:29:33.984Z,21.63
2018-07-02T03:30:36.972Z,21.61
2018-07-02T03:31:33.920Z,21.61
2018-07-02T03:32:34.090Z,21.63
2018-07-02T03:33:33.957Z,21.63
2018-07-02T03:34:36.966Z,21.6
2018-07-02T03:35:33.865Z,21.59
2018-07-02T03:36:33.956Z,21.59
2018-07-02T03:37:33.939Z,21.6
2018-07-02T03:38:37.396Z,21.6
2018-07-02T03:39:34.023Z,21.61
2018-07-02T03:40:33.893Z,21.61
2018-07-02T03:41:33.956Z,21.61
2018-07-02T03:42:37.323Z,21.61
2018-07-02T03:43:34.059Z,21.6
2018-07-02T03:44:34.565Z,21.6
2018-07-02T03:45:33.972Z,21.59
2018-07-02T03:46:34.018Z,21.59
2018-07-02T03:47:34.008Z,21.6
2018-07-02T03:48:33.964Z,21.59
2018-07-02T03:49:50.810Z,21.6
2018-07-02T03:50:34.195Z,21.6
2018-07-02T03:51:34.118Z,21.6
2018-07-02T03:52:34.030Z,21.6
2018-07-02T03:53:34.056Z,21.59
2018-07-02T03:54:33.959Z,21.59
2018-07-02T03:55:34.064Z,21.6
2018-07-02T03:56:33.946Z,21.6
2018-07-02T03:57:34.011Z,21.61
2018-07-02T03:58:34.013Z,21.61
2018-07-02T03:59:34.185Z,21.6
2018-07-02T04:00:33.961Z,21.59
2018-07-02T04:01:34.138Z,21.59
2018-07-02T04:02:33.892Z,21.61
2018-07-02T04:03:33.756Z,21.6
2018-07-02T04:04:33.929Z,21.61
2018-07-02T04:05:36.016Z,21.6
2018-07-02T04:06:34.048Z,21.61
2018-07-02T04:07:33.835Z,21.61
2018-07-02T04:08:33.906Z,21.6
2018-07-02T04:09:34.063Z,21.6
2018-07-02T04:10:33.857Z,21.6
2018-07-02T04:11:33.931Z,21.59
2018-07-02T04:12:33.831Z,21.57
2018-07-02T04:13:33.968Z,21.59
2018-07-02T04:14:33.981Z,21.59
2018-07-02T04:15:33.948Z,21.61
2018-07-02T04:16:34.098Z,21.59
2018-07-02T04:17:33.968Z,21.59
2018-07-02T04:18:37.726Z,21.6
2018-07-02T04:19:37.746Z,21.56
2018-07-02T04:20:35.994Z,21.59
2018-07-02T04:21:36.662Z,21.59
2018-07-02T04:22:33.974Z,21.59
2018-07-02T04:23:36.884Z,21.59
2018-07-02T04:24:33.936Z,21.6
2018-07-02T04:25:37.664Z,21.56
2018-07-02T04:26:33.884Z,21.3
2018-07-02T04:27:34.114Z,21.15
2018-07-02T04:28:34.498Z,20.99
2018-07-02T04:29:33.942Z,20.98
2018-07-02T04:30:33.917Z,20.89
2018-07-02T04:31:33.970Z,20.78
2018-07-02T04:32:35.933Z,20.71
2018-07-02T04:33:33.895Z,20.64
2018-07-02T04:34:33.991Z,20.64
2018-07-02T04:35:34.117Z,20.6
2018-07-02T04:36:37.151Z,20.55
2018-07-02T04:37:33.826Z,20.43
2018-07-02T04:38:33.977Z,20.4
2018-07-02T04:39:33.806Z,20.36
2018-07-02T04:40:36.591Z,20.33
2018-07-02T04:41:36.116Z,20.36
2018-07-02T04:42:37.698Z,20.3
2018-07-02T04:43:36.864Z,20.25
2018-07-02T04:44:36.921Z,20.25
2018-07-02T04:45:37.186Z,20.25
2018-07-02T04:46:33.951Z,20.25
2018-07-02T04:47:40.720Z,20.27
2018-07-02T04:48:37.677Z,20.27
2018-07-02T04:49:37.426Z,20.27
2018-07-02T04:50:36.785Z,20.25
2018-07-02T04:51:37.179Z,20.22
2018-07-02T04:52:36.618Z,20.29
2018-07-02T04:53:37.337Z,20.22
2018-07-02T04:54:37.676Z,20.26
2018-07-02T04:55:36.234Z,20.2
2018-07-02T04:56:37.689Z,20.2
2018-07-02T04:57:33.987Z,20.25
2018-07-02T04:58:37.867Z,20.27
2018-07-02T04:59:34.029Z,20.2
2018-07-02T05:00:33.818Z,20.18
2018-07-02T05:01:33.824Z,20.2
2018-07-02T05:02:33.785Z,20.22
2018-07-02T05:03:33.773Z,20.27
2018-07-02T05:04:33.800Z,20.32
2018-07-02T05:05:34.087Z,20.33
2018-07-02T05:06:33.732Z,20.39
2018-07-02T05:07:34.085Z,20.43
2018-07-02T05:08:33.775Z,20.46
2018-07-02T05:09:33.849Z,20.5
2018-07-02T05:10:33.722Z,20.54
2018-07-02T05:11:33.909Z,20.55
2018-07-02T05:12:33.928Z,20.61
2018-07-02T05:13:33.751Z,20.63
2018-07-02T05:14:33.873Z,20.68
2018-07-02T05:15:33.745Z,20.71
2018-07-02T05:16:33.865Z,20.72
2018-07-02T05:17:33.866Z,20.74
2018-07-02T05:18:33.972Z,20.8
2018-07-02T05:19:33.663Z,20.81
2018-07-02T05:20:33.863Z,20.78
2018-07-02T05:21:33.902Z,20.82
2018-07-02T05:22:33.913Z,20.85
2018-07-02T05:23:33.748Z,20.85
2018-07-02T05:24:33.750Z,20.85
2018-07-02T05:25:33.811Z,20.88
2018-07-02T05:26:33.761Z,20.89
2018-07-02T05:27:33.895Z,20.91
2018-07-02T05:28:33.811Z,20.92
2018-07-02T05:29:33.863Z,20.94
2018-07-02T05:30:33.708Z,20.98
2018-07-02T05:31:33.871Z,20.99
2018-07-02T05:32:33.735Z,20.98
2018-07-02T05:33:34.049Z,20.98
2018-07-02T05:34:33.979Z,20.98
2018-07-02T05:35:33.833Z,20.99
2018-07-02T05:36:34.027Z,20.98
2018-07-02T05:37:33.772Z,21.01
2018-07-02T05:38:33.908Z,21.01
2018-07-02T05:39:33.797Z,20.98
2018-07-02T05:40:33.943Z,20.98
2018-07-02T05:41:34.057Z,20.99
2018-07-02T05:42:33.909Z,20.99
2018-07-02T05:43:33.895Z,21.01
2018-07-02T05:44:33.692Z,21.01
2018-07-02T05:45:33.820Z,21.01
2018-07-02T05:46:33.934Z,20.97
2018-07-02T05:47:33.696Z,20.99
2018-07-02T05:48:34.086Z,21.02
2018-07-02T05:49:33.852Z,21.02
2018-07-02T05:50:33.879Z,21.03
2018-07-02T05:51:33.877Z,21.01
2018-07-02T05:52:33.761Z,21.01
2018-07-02T05:53:33.709Z,21.02
2018-07-02T05:54:33.839Z,21.02
2018-07-02T05:55:33.845Z,21.03
2018-07-02T05:56:33.858Z,21.02
2018-07-02T05:57:33.827Z,21.02
2018-07-02T05:58:33.993Z,21.02
2018-07-02T05:59:33.916Z,21.02
2018-07-02T06:00:34.522Z,21.02
2018-07-02T06:01:33.767Z,21.03
2018-07-02T06:02:34.147Z,21.05
2018-07-02T06:03:33.992Z,21.03
2018-07-02T06:04:33.863Z,21.06
2018-07-02T06:05:33.896Z,21.03
2018-07-02T06:06:33.745Z,21.03
2018-07-02T06:07:34.010Z,21.06
2018-07-02T06:08:33.784Z,21.08
2018-07-02T06:09:33.784Z,21.06
2018-07-02T06:10:33.721Z,21.06
2018-07-02T06:11:33.879Z,21.11
2018-07-02T06:12:33.937Z,21.08
2018-07-02T06:13:33.915Z,21.09
2018-07-02T06:14:33.897Z,21.08
2018-07-02T06:15:33.690Z,21.09
2018-07-02T06:16:34.476Z,21.09
2018-07-02T06:17:33.846Z,21.14
2018-07-02T06:18:33.928Z,21.09
2018-07-02T06:19:33.857Z,21.11
2018-07-02T06:20:33.970Z,21.11
2018-07-02T06:21:33.797Z,21.11
2018-07-02T06:22:33.728Z,21.11
2018-07-02T06:23:33.854Z,21.11
2018-07-02T06:24:33.646Z,21.11
2018-07-02T06:25:33.672Z,21.11
2018-07-02T06:26:33.742Z,21.14
2018-07-02T06:27:33.787Z,21.11
2018-07-02T06:28:33.746Z,21.12
2018-07-02T06:29:33.871Z,21.12
2018-07-02T06:30:34.389Z,21.14
2018-07-02T06:31:33.736Z,21.15
2018-07-02T06:32:33.956Z,21.15
2018-07-02T06:33:33.666Z,21.12
2018-07-02T06:34:33.717Z,21.15
2018-07-02T06:35:33.675Z,21.16
2018-07-02T06:36:33.843Z,21.14
2018-07-02T06:37:33.828Z,21.15
2018-07-02T06:38:33.841Z,21.16
2018-07-02T06:39:33.868Z,21.15
2018-07-02T06:40:33.817Z,21.16
2018-07-02T06:41:33.722Z,21.16
2018-07-02T06:42:33.891Z,21.15
2018-07-02T06:43:33.752Z,21.14
2018-07-02T06:44:33.686Z,21.14
2018-07-02T06:45:33.812Z,21.15
2018-07-02T06:46:33.916Z,21.14
2018-07-02T06:47:33.917Z,21.14
2018-07-02T06:48:34.454Z,21.14
2018-07-02T06:49:33.838Z,21.12
2018-07-02T06:50:33.857Z,21.15
2018-07-02T06:51:34.144Z,21.15
2018-07-02T06:52:33.626Z,21.15
2018-07-02T06:53:33.734Z,21.16
2018-07-02T06:54:33.637Z,21.15
2018-07-02T06:55:33.740Z,21.16
2018-07-02T06:56:33.885Z,21.16
2018-07-02T06:57:33.772Z,21.15
2018-07-02T06:58:34.136Z,21.16
2018-07-02T06:59:33.901Z,21.18
2018-07-02T07:00:33.828Z,21.18
2018-07-02T07:01:33.760Z,21.16
2018-07-02T07:02:33.717Z,21.18
2018-07-02T07:03:33.867Z,21.16
2018-07-02T07:04:33.926Z,21.19
2018-07-02T07:05:33.926Z,21.18
2018-07-02T07:06:34.563Z,21.21
2018-07-02T07:07:33.835Z,21.19
2018-07-02T07:08:34.264Z,21.16
2018-07-02T07:09:33.698Z,21.21
2018-07-02T07:10:33.824Z,21.18
2018-07-02T07:11:33.778Z,21.21
2018-07-02T07:12:33.728Z,21.21
2018-07-02T07:13:33.806Z,21.21
2018-07-02T07:14:33.723Z,21.21
2018-07-02T07:15:34.082Z,21.18
2018-07-02T07:16:33.783Z,21.18
2018-07-02T07:17:33.906Z,21.21
2018-07-02T07:18:33.906Z,21.22
2018-07-02T07:19:33.948Z,21.21
2018-07-02T07:20:33.747Z,21.19
2018-07-02T07:21:33.819Z,21.21
2018-07-02T07:22:33.727Z,21.18
2018-07-02T07:23:33.771Z,21.22
2018-07-02T07:24:33.869Z,21.21
2018-07-02T07:25:33.679Z,21.19
2018-07-02T07:26:33.733Z,21.21
2018-07-02T07:27:34.459Z,21.22
2018-07-02T07:28:33.742Z,21.22
2018-07-02T07:29:33.689Z,21.19
2018-07-02T07:30:33.821Z,21.23
2018-07-02T07:31:33.652Z,21.23
2018-07-02T07:32:33.815Z,21.22
2018-07-02T07:33:33.961Z,21.23
2018-07-02T07:34:33.926Z,21.22
2018-07-02T07:35:33.732Z,21.22
2018-07-02T07:36:33.888Z,21.22
2018-07-02T07:37:34.329Z,21.22
2018-07-02T07:38:33.685Z,21.23
2018-07-02T07:39:33.930Z,21.22
2018-07-02T07:40:33.889Z,21.23
2018-07-02T07:41:33.937Z,21.22
2018-07-02T07:42:33.782Z,21.23
2018-07-02T07:43:33.724Z,21.22
2018-07-02T07:44:33.904Z,21.23
2018-07-02T07:45:33.729Z,21.23
2018-07-02T07:46:33.878Z,21.23
2018-07-02T07:47:33.793Z,21.25
2018-07-02T07:48:33.801Z,21.23
2018-07-02T07:49:33.712Z,21.23
2018-07-02T07:50:33.637Z,21.23
2018-07-02T07:51:33.803Z,21.23
2018-07-02T07:52:34.075Z,21.29
2018-07-02T07:53:33.846Z,21.3
2018-07-02T07:54:33.910Z,21.29
2018-07-02T07:55:33.906Z,21.25
2018-07-02T07:56:33.729Z,21.26
2018-07-02T07:57:33.884Z,21.25
2018-07-02T07:58:33.797Z,21.27
2018-07-02T07:59:34.523Z,21.27
2018-07-02T08:00:33.929Z,21.3
2018-07-02T08:01:33.798Z,21.32
2018-07-02T08:02:33.677Z,21.33
2018-07-02T08:03:34.130Z,21.37
2018-07-02T08:04:33.827Z,21.39
2018-07-02T08:05:33.755Z,21.39
2018-07-02T08:06:33.834Z,21.4
2018-07-02T08:07:33.863Z,21.4
2018-07-02T08:08:33.853Z,21.42
2018-07-02T08:09:33.760Z,21.43
2018-07-02T08:10:34.649Z,21.43
2018-07-02T08:11:33.882Z,21.43
2018-07-02T08:12:33.778Z,21.47
2018-07-02T08:13:33.839Z,21.46
2018-07-02T08:14:33.784Z,21.5
2018-07-02T08:15:33.943Z,21.49
2018-07-02T08:16:33.845Z,21.5
2018-07-02T08:17:33.958Z,21.51
2018-07-02T08:18:33.937Z,21.51
2018-07-02T08:19:33.831Z,21.53
2018-07-02T08:20:33.731Z,21.51
2018-07-02T08:21:33.847Z,21.54
2018-07-02T08:22:33.812Z,21.54
2018-07-02T08:23:33.828Z,21.51
2018-07-02T08:24:33.773Z,21.54
2018-07-02T08:25:33.900Z,21.56
2018-07-02T08:26:33.867Z,21.56
2018-07-02T08:27:33.785Z,21.56
2018-07-02T08:28:33.694Z,21.56
2018-07-02T08:29:33.868Z,21.59
2018-07-02T08:30:33.762Z,21.6
2018-07-02T08:31:33.859Z,21.57
2018-07-02T08:32:33.709Z,21.61
2018-07-02T08:33:33.811Z,21.6
2018-07-02T08:34:33.884Z,21.6
2018-07-02T08:35:33.685Z,21.61
2018-07-02T08:36:33.822Z,21.61
2018-07-02T08:37:33.677Z,21.61
2018-07-02T08:38:33.876Z,21.61
2018-07-02T08:39:33.842Z,21.63
2018-07-02T08:40:33.725Z,21.61
2018-07-02T08:41:34.145Z,21.57
2018-07-02T08:42:33.884Z,21.51
2018-07-02T08:43:33.753Z,21.53
2018-07-02T08:44:33.630Z,21.49
2018-07-02T08:45:33.712Z,21.49
2018-07-02T08:46:33.718Z,21.47
2018-07-02T08:47:33.675Z,21.47
2018-07-02T08:48:33.788Z,21.46
2018-07-02T08:49:33.867Z,21.44
2018-07-02T08:50:33.687Z,21.46
2018-07-02T08:51:33.632Z,21.43
2018-07-02T08:52:33.776Z,21.43
2018-07-02T08:53:33.772Z,21.43
2018-07-02T08:54:33.781Z,21.42
2018-07-02T08:55:33.905Z,21.39
2018-07-02T08:56:33.788Z,21.42
2018-07-02T08:57:33.872Z,21.4
2018-07-02T08:58:33.730Z,21.4
2018-07-02T08:59:33.801Z,21.39
2018-07-02T09:00:33.803Z,21.39
2018-07-02T09:01:33.689Z,21.39
2018-07-02T09:02:33.757Z,21.37
2018-07-02T09:03:33.724Z,21.36
2018-07-02T09:04:33.876Z,21.37
2018-07-02T09:05:33.852Z,21.36
2018-07-02T09:06:33.704Z,21.36
2018-07-02T09:07:33.785Z,21.39
2018-07-02T09:08:33.694Z,21.4
2018-07-02T09:09:33.813Z,21.39
2018-07-02T09:10:33.654Z,21.34
2018-07-02T09:11:33.689Z,21.37
2018-07-02T09:12:33.903Z,21.36
2018-07-02T09:13:33.832Z,21.36
2018-07-02T09:14:33.884Z,21.36
2018-07-02T09:15:33.856Z,21.33
2018-07-02T09:16:33.662Z,21.33
2018-07-02T09:17:33.628Z,21.34
2018-07-02T09:18:33.711Z,21.33
2018-07-02T09:19:33.894Z,21.36
2018-07-02T09:20:33.812Z,21.34
2018-07-02T09:21:33.779Z,21.34
2018-07-02T09:22:33.843Z,21.34
2018-07-02T09:23:33.769Z,21.33
2018-07-02T09:24:33.808Z,21.36
2018-07-02T09:25:33.740Z,21.33
2018-07-02T09:26:33.767Z,21.34
2018-07-02T09:27:33.909Z,21.34
2018-07-02T09:28:33.768Z,21.33
2018-07-02T09:29:33.659Z,21.33
2018-07-02T09:30:33.702Z,21.32
2018-07-02T09:31:33.827Z,21.34
2018-07-02T09:32:34.193Z,21.34
2018-07-02T09:33:33.949Z,21.33
2018-07-02T09:34:33.773Z,21.34
2018-07-02T09:35:43.752Z,21.33
2018-07-02T09:36:33.883Z,21.32
2018-07-02T09:37:33.803Z,21.32
2018-07-02T09:38:33.808Z,21.34
2018-07-02T09:39:33.933Z,21.34
2018-07-02T09:40:33.745Z,21.33
2018-07-02T09:41:33.719Z,21.32
2018-07-02T09:42:33.801Z,21.3
2018-07-02T09:43:33.714Z,21.32
2018-07-02T09:44:33.860Z,21.32
2018-07-02T09:45:33.697Z,21.3
2018-07-02T09:46:33.829Z,21.32
2018-07-02T09:47:33.674Z,21.33
2018-07-02T09:48:33.798Z,21.34
2018-07-02T09:49:34.065Z,21.36
2018-07-02T09:50:33.814Z,21.34
2018-07-02T09:51:33.844Z,21.32
2018-07-02T09:52:33.617Z,21.3
2018-07-02T09:53:33.868Z,21.34
2018-07-02T09:54:33.915Z,21.34
2018-07-02T09:55:33.767Z,21.33
2018-07-02T09:56:33.624Z,21.33
2018-07-02T09:57:33.833Z,21.34
2018-07-02T09:58:33.630Z,21.34
2018-07-02T09:59:33.684Z,21.34
2018-07-02T10:00:34.249Z,21.34
2018-07-02T10:01:33.814Z,21.36
2018-07-02T10:02:33.849Z,21.37
2018-07-02T10:03:33.744Z,21.37
2018-07-02T10:04:33.892Z,21.37
2018-07-02T10:05:33.608Z,21.36
2018-07-02T10:06:33.953Z,21.37
2018-07-02T10:07:33.694Z,21.37
2018-07-02T10:08:33.706Z,21.37
2018-07-02T10:09:33.862Z,21.37
2018-07-02T10:10:33.778Z,21.37
2018-07-02T10:11:33.834Z,21.37
2018-07-02T10:12:33.854Z,21.37
2018-07-02T10:13:33.711Z,21.39
2018-07-02T10:14:33.747Z,21.39
2018-07-02T10:15:33.914Z,21.39
2018-07-02T10:16:33.802Z,21.39
2018-07-02T10:17:33.730Z,21.39
2018-07-02T10:18:33.826Z,21.4
2018-07-02T10:19:33.623Z,21.39
2018-07-02T10:20:33.694Z,21.42
2018-07-02T10:21:33.699Z,21.4
2018-07-02T10:22:33.730Z,21.39
2018-07-02T10:23:37.913Z,21.4
2018-07-02T10:24:33.647Z,21.39
2018-07-02T10:25:33.654Z,21.4
2018-07-02T10:26:33.819Z,21.39
2018-07-02T10:27:33.715Z,21.43
2018-07-02T10:28:33.530Z,21.42
2018-07-02T10:29:33.777Z,21.39
2018-07-02T10:30:33.704Z,21.43
2018-07-02T10:31:33.773Z,21.4
2018-07-02T10:32:33.774Z,21.42
2018-07-02T10:33:33.703Z,21.4
2018-07-02T10:34:33.586Z,21.4
2018-07-02T10:35:33.613Z,21.4
2018-07-02T10:36:33.777Z,21.42
2018-07-02T10:37:33.808Z,21.44
2018-07-02T10:38:33.790Z,21.37
2018-07-02T10:39:33.741Z,21.4
2018-07-02T10:40:33.796Z,21.42
2018-07-02T10:41:33.818Z,21.43
2018-07-02T10:42:33.897Z,21.4
2018-07-02T10:43:33.562Z,21.42
2018-07-02T10:44:33.774Z,21.4
2018-07-02T10:45:33.631Z,21.43
2018-07-02T10:46:34.047Z,21.43
2018-07-02T10:47:33.743Z,21.39
2018-07-02T10:48:33.737Z,21.4
2018-07-02T10:49:33.782Z,21.42
2018-07-02T10:50:33.791Z,21.43
2018-07-02T10:51:33.756Z,21.4
2018-07-02T10:52:33.658Z,21.42
2018-07-02T10:53:33.736Z,21.39
2018-07-02T10:54:33.789Z,21.42
2018-07-02T10:55:34.123Z,21.42
2018-07-02T10:56:33.727Z,21.42
2018-07-02T10:57:33.785Z,21.4
2018-07-02T10:58:33.797Z,21.42
2018-07-02T10:59:33.789Z,21.42
2018-07-02T11:00:33.853Z,21.4
2018-07-02T11:01:33.619Z,21.4
2018-07-02T11:02:33.813Z,21.4
2018-07-02T11:03:33.667Z,21.4
2018-07-02T11:04:33.815Z,21.43
2018-07-02T11:05:33.634Z,21.42
2018-07-02T11:06:33.848Z,21.4
2018-07-02T11:07:33.702Z,21.4
2018-07-02T11:08:33.788Z,21.4
2018-07-02T11:09:33.698Z,21.43
2018-07-02T11:10:33.842Z,21.4
2018-07-02T11:11:33.725Z,21.4
2018-07-02T11:12:33.583Z,21.42
2018-07-02T11:13:33.753Z,21.42
2018-07-02T11:14:33.749Z,21.42
2018-07-02T11:15:33.771Z,21.42
2018-07-02T11:16:33.649Z,21.39
2018-07-02T11:17:33.637Z,21.43
2018-07-02T11:18:33.788Z,21.4
2018-07-02T11:19:33.787Z,21.42
2018-07-02T11:20:33.833Z,21.39
2018-07-02T11:21:33.658Z,21.42
2018-07-02T11:22:33.628Z,21.4
2018-07-02T11:23:34.143Z,21.39
2018-07-02T11:24:33.711Z,21.43
2018-07-02T11:25:33.785Z,21.39
2018-07-02T11:26:33.795Z,21.4
2018-07-02T11:27:33.922Z,21.44
2018-07-02T11:28:33.727Z,21.42
2018-07-02T11:29:33.631Z,21.42
2018-07-02T11:30:33.608Z,21.43
2018-07-02T11:31:34.035Z,21.42
2018-07-02T11:32:33.741Z,21.42
2018-07-02T11:33:34.003Z,21.42
2018-07-02T11:34:33.766Z,21.4
2018-07-02T11:35:33.910Z,21.42
2018-07-02T11:36:33.751Z,21.44
2018-07-02T11:37:34.209Z,21.44
2018-07-02T11:38:33.827Z,21.43
2018-07-02T11:39:33.851Z,21.43
2018-07-02T11:40:33.845Z,21.4
2018-07-02T11:41:33.709Z,21.4
2018-07-02T11:42:33.774Z,21.42
2018-07-02T11:43:33.679Z,21.42
2018-07-02T11:44:33.831Z,21.42
2018-07-02T11:45:33.824Z,21.43
2018-07-02T11:46:33.603Z,21.42
2018-07-02T11:47:33.767Z,21.4
2018-07-02T11:48:33.663Z,21.43
2018-07-02T11:49:33.956Z,21.42
2018-07-02T11:50:33.708Z,21.42
2018-07-02T11:51:33.640Z,21.42
2018-07-02T11:52:33.736Z,21.42
2018-07-02T11:53:33.719Z,21.4
2018-07-02T11:54:33.609Z,21.42
2018-07-02T11:55:33.757Z,21.42
2018-07-02T11:56:33.610Z,21.44
2018-07-02T11:57:34.032Z,21.46
2018-07-02T11:58:33.825Z,21.43
2018-07-02T11:59:33.763Z,21.46
2018-07-02T12:00:33.793Z,21.42
2018-07-02T12:01:34.016Z,21.43
2018-07-02T12:02:33.876Z,21.43
2018-07-02T12:03:33.606Z,21.43
2018-07-02T12:04:33.869Z,21.42
2018-07-02T12:05:33.683Z,21.43
2018-07-02T12:06:33.588Z,21.42
2018-07-02T12:07:33.845Z,21.44
2018-07-02T12:08:33.685Z,21.4
2018-07-02T12:09:33.797Z,21.42
2018-07-02T12:10:33.822Z,21.43
2018-07-02T12:11:33.704Z,21.43
2018-07-02T12:12:33.835Z,21.43
2018-07-02T12:13:33.818Z,21.42
2018-07-02T12:14:33.719Z,21.44
2018-07-02T12:15:33.584Z,21.42
2018-07-02T12:16:33.793Z,21.44
2018-07-02T12:17:33.722Z,21.46
2018-07-02T12:18:33.695Z,21.43
2018-07-02T12:19:33.759Z,21.44
2018-07-02T12:20:33.985Z,21.43
2018-07-02T12:21:33.719Z,21.43
2018-07-02T12:22:33.580Z,21.43
2018-07-02T12:23:33.758Z,21.43
2018-07-02T12:24:33.708Z,21.43
2018-07-02T12:25:33.670Z,21.42
2018-07-02T12:26:33.798Z,21.43
2018-07-02T12:27:33.834Z,21.44
2018-07-02T12:28:33.666Z,21.44
2018-07-02T12:29:34.125Z,21.44
2018-07-02T12:30:34.824Z,21.42
2018-07-02T12:31:34.013Z,21.44
2018-07-02T12:32:33.586Z,21.44
2018-07-02T12:33:34.190Z,21.43
2018-07-02T12:34:33.861Z,21.42
2018-07-02T12:35:33.764Z,21.43
2018-07-02T12:36:33.727Z,21.44
2018-07-02T12:37:33.751Z,21.44
2018-07-02T12:38:33.577Z,21.43
2018-07-02T12:39:33.742Z,21.46
2018-07-02T12:40:33.842Z,21.42
2018-07-02T12:41:34.145Z,21.43
2018-07-02T12:42:33.712Z,21.46
2018-07-02T12:43:33.848Z,21.44
2018-07-02T12:44:33.783Z,21.44
2018-07-02T12:45:33.845Z,21.44
2018-07-02T12:46:33.681Z,21.43
2018-07-02T12:47:33.875Z,21.43
2018-07-02T12:48:33.778Z,21.43
2018-07-02T12:49:33.831Z,21.44
2018-07-02T12:50:33.924Z,21.46
2018-07-02T12:51:33.652Z,21.46
2018-07-02T12:52:33.694Z,21.46
2018-07-02T12:53:33.672Z,21.46
2018-07-02T12:54:34.007Z,21.46
2018-07-02T12:55:33.772Z,21.44